createdAt,value
2019-03-05T00:01:24.079Z,4.70
2019-03-05T00:06:18.716Z,4.70
2019-03-05T00:11:13.476Z,4.70
2019-03-05T00:16:08.257Z,4.60
2019-03-05T00:21:02.845Z,4.60
2019-03-05T00:25:57.426Z,4.50
2019-03-05T00:31:14.227Z,4.40
2019-03-05T00:36:19.490Z,4.30
2019-03-05T00:41:56.626Z,4.30
2019-03-05T00:47:10.572Z,4.20
2019-03-05T00:52:21.252Z,4.30
2019-03-05T00:57:53.551Z,4.30
2019-03-05T01:03:37.952Z,4.30
2019-03-05T01:08:33.968Z,4.30
2019-03-05T01:13:28.567Z,4.40
2019-03-05T01:18:23.151Z,4.50
2019-03-05T01:23:17.884Z,4.50
2019-03-05T01:28:12.520Z,4.50
2019-03-05T01:33:11.873Z,4.30
2019-03-05T01:38:06.443Z,4.30
2019-03-05T01:43:01.021Z,4.50
2019-03-05T01:47:55.592Z,4.70
2019-03-05T01:52:50.249Z,5.00
2019-03-05T01:57:44.819Z,5.20
2019-03-05T02:02:39.488Z,5.40
2019-03-05T02:07:34.181Z,5.40
2019-03-05T02:12:28.769Z,5.50
2019-03-05T02:17:23.344Z,5.60
2019-03-05T02:22:25.098Z,5.70
2019-03-05T02:27:46.809Z,5.70
2019-03-05T02:33:00.952Z,5.80
2019-03-05T02:38:31.387Z,5.90
2019-03-05T02:43:53.157Z,6.00
2019-03-05T02:49:13.169Z,6.20
2019-03-05T02:54:24.151Z,6.00
2019-03-05T02:59:17.028Z,5.90
2019-03-05T03:04:13.276Z,5.70
2019-03-05T03:09:33.227Z,5.60
2019-03-05T03:14:27.822Z,5.30
2019-03-05T03:19:22.495Z,5.10
2019-03-05T03:24:17.061Z,5.00
2019-03-05T03:29:11.706Z,4.90
2019-03-05T03:34:06.360Z,4.90
2019-03-05T03:39:00.980Z,4.80
2019-03-05T03:43:55.652Z,4.80
2019-03-05T03:48:50.221Z,4.70
2019-03-05T03:53:44.800Z,4.70
2019-03-05T03:58:39.521Z,4.60
2019-03-05T04:03:34.186Z,4.60
2019-03-05T04:08:28.900Z,4.60
2019-03-05T04:13:23.576Z,4.60
2019-03-05T04:18:18.160Z,4.60
2019-03-05T04:23:12.758Z,4.60
2019-03-05T04:28:07.332Z,4.70
2019-03-05T04:33:01.931Z,4.80
2019-03-05T04:37:56.508Z,4.80
2019-03-05T04:42:51.086Z,4.80
2019-03-05T04:47:45.662Z,4.70
2019-03-05T04:52:40.265Z,4.70
2019-03-05T04:57:34.838Z,4.60
2019-03-05T05:02:29.423Z,4.60
2019-03-05T05:07:24.029Z,4.50
2019-03-05T05:12:18.630Z,4.40
2019-03-05T05:17:13.209Z,4.40
2019-03-05T05:22:07.801Z,4.40
2019-03-05T05:27:02.390Z,4.40
2019-03-05T05:31:58.445Z,4.40
2019-03-05T05:36:53.152Z,4.40
2019-03-05T05:41:47.736Z,4.50
2019-03-05T05:46:42.318Z,4.60
2019-03-05T05:51:36.891Z,4.70
2019-03-05T05:56:31.493Z,4.70
2019-03-05T06:01:26.078Z,4.70
2019-03-05T06:06:20.671Z,4.70
2019-03-05T06:11:15.261Z,4.80
2019-03-05T06:16:09.905Z,4.80
2019-03-05T06:21:04.497Z,4.90
2019-03-05T06:25:59.074Z,5.00
2019-03-05T06:30:53.657Z,5.20
2019-03-05T06:35:48.248Z,5.30
2019-03-05T06:40:45.554Z,5.50
2019-03-05T06:45:40.108Z,5.70
2019-03-05T06:50:34.724Z,5.90
2019-03-05T06:55:29.352Z,6.10
2019-03-05T07:00:41.689Z,6.00
2019-03-05T07:06:30.769Z,6.00
2019-03-05T07:11:38.455Z,6.10
2019-03-05T07:16:40.480Z,6.20
2019-03-05T07:22:08.396Z,6.40
2019-03-05T07:27:02.962Z,6.50
2019-03-05T07:31:57.591Z,6.60
2019-03-05T07:36:52.451Z,6.90
2019-03-05T07:41:48.244Z,7.00
2019-03-05T07:46:43.283Z,7.10
2019-03-05T07:51:38.221Z,7.20
2019-03-05T07:56:33.675Z,7.40
2019-03-05T08:01:28.273Z,7.50
2019-03-05T08:06:23.815Z,7.70
2019-03-05T08:11:18.622Z,7.80
2019-03-05T08:16:18.125Z,8.00
2019-03-05T08:21:12.947Z,8.10
2019-03-05T08:26:07.785Z,8.30
2019-03-05T08:31:03.110Z,8.50
2019-03-05T08:35:57.692Z,8.60
2019-03-05T08:40:52.701Z,8.70
2019-03-05T08:45:47.403Z,8.70
2019-03-05T08:50:42.096Z,8.80
2019-03-05T08:55:37.246Z,9.00
2019-03-05T09:00:31.951Z,9.20
2019-03-05T09:05:27.403Z,9.30
2019-03-05T09:10:26.074Z,9.50
2019-03-05T09:15:21.250Z,9.40
2019-03-05T09:20:20.731Z,9.50
2019-03-05T09:25:19.301Z,9.60
2019-03-05T09:30:22.512Z,9.40
2019-03-05T09:35:18.303Z,9.80
2019-03-05T09:40:40.829Z,9.70
2019-03-05T09:45:35.439Z,9.60
2019-03-05T09:50:32.031Z,9.80
2019-03-05T09:55:27.181Z,9.80
2019-03-05T10:00:24.831Z,10.00
2019-03-05T10:05:22.588Z,10.00
2019-03-05T10:10:21.709Z,10.10
2019-03-05T10:15:22.885Z,10.00
2019-03-05T10:20:29.975Z,10.40
2019-03-05T10:25:26.787Z,10.90
2019-03-05T10:30:37.072Z,11.10
2019-03-05T10:35:31.984Z,11.30
2019-03-05T10:40:34.646Z,11.30
2019-03-05T10:45:29.366Z,11.00
2019-03-05T10:50:31.118Z,10.80
2019-03-05T10:55:26.641Z,10.80
2019-03-05T11:00:49.608Z,11.00
2019-03-05T11:05:44.599Z,11.20
2019-03-05T11:10:41.204Z,10.80
2019-03-05T11:15:37.560Z,10.80
2019-03-05T11:20:32.298Z,11.10
2019-03-05T11:25:27.048Z,11.00
2019-03-05T11:30:35.999Z,11.20
2019-03-05T11:35:33.619Z,11.40
2019-03-05T11:40:29.304Z,11.60
2019-03-05T11:45:30.381Z,11.30
2019-03-05T11:50:26.398Z,11.40
2019-03-05T11:55:24.560Z,11.70
2019-03-05T12:00:36.359Z,11.90
2019-03-05T12:05:30.922Z,11.80
2019-03-05T12:10:29.047Z,11.60
2019-03-05T12:15:33.031Z,11.40
2019-03-05T12:20:27.738Z,11.30
2019-03-05T12:25:27.029Z,11.10
2019-03-05T12:30:28.055Z,11.10
2019-03-05T12:35:22.756Z,11.10
2019-03-05T12:40:19.968Z,11.10
2019-03-05T12:45:18.951Z,11.40
2019-03-05T12:50:17.830Z,11.50
2019-03-05T12:55:15.444Z,11.50
2019-03-05T13:00:17.654Z,11.60
2019-03-05T13:05:17.765Z,11.90
2019-03-05T13:10:36.245Z,12.30
2019-03-05T13:15:34.393Z,12.40
2019-03-05T13:20:31.135Z,12.50
2019-03-05T13:25:28.767Z,12.30
2019-03-05T13:30:28.063Z,12.00
2019-03-05T13:35:25.535Z,11.70
2019-03-05T13:40:23.172Z,11.70
2019-03-05T13:45:18.246Z,11.60
2019-03-05T13:50:29.574Z,11.40
2019-03-05T13:55:34.319Z,11.40
2019-03-05T14:00:28.885Z,11.50
2019-03-05T14:05:37.946Z,11.60
2019-03-05T14:10:32.523Z,11.60
2019-03-05T14:15:27.641Z,11.70
2019-03-05T14:20:31.595Z,11.80
2019-03-05T14:25:19.033Z,12.00
2019-03-05T14:30:21.336Z,12.00
2019-03-05T14:35:18.062Z,11.90
2019-03-05T14:40:24.423Z,11.80
2019-03-05T14:45:26.120Z,11.80
2019-03-05T14:50:20.747Z,11.80
2019-03-05T14:55:15.766Z,11.90
2019-03-05T15:00:18.125Z,11.80
2019-03-05T15:05:12.946Z,11.80
2019-03-05T15:10:09.691Z,11.80
2019-03-05T15:15:06.113Z,11.90
2019-03-05T15:20:00.783Z,11.90
2019-03-05T15:24:55.425Z,11.90
2019-03-05T15:29:50.026Z,11.90
2019-03-05T15:34:47.558Z,11.90
2019-03-05T15:39:42.430Z,12.00
2019-03-05T15:44:37.182Z,12.10
2019-03-05T15:49:32.177Z,12.30
2019-03-05T15:54:26.769Z,12.40
2019-03-05T15:59:21.424Z,12.20
2019-03-05T16:04:16.064Z,12.20
2019-03-05T16:09:16.998Z,12.10
2019-03-05T16:14:11.609Z,11.90
2019-03-05T16:19:06.280Z,11.70
2019-03-05T16:24:02.705Z,11.70
2019-03-05T16:28:57.547Z,11.70
2019-03-05T16:34:04.645Z,11.50
2019-03-05T16:39:04.888Z,11.50
2019-03-05T16:44:02.288Z,11.50
2019-03-05T16:49:14.718Z,11.50
2019-03-05T16:54:13.701Z,11.40
2019-03-05T16:59:26.182Z,11.20
2019-03-05T17:04:22.405Z,11.10
2019-03-05T17:09:19.260Z,11.00
2019-03-05T17:14:13.857Z,10.90
2019-03-05T17:19:08.450Z,10.90
2019-03-05T17:24:03.021Z,10.80
2019-03-05T17:28:57.807Z,10.80
2019-03-05T17:33:52.394Z,10.70
2019-03-05T17:38:46.991Z,10.50
2019-03-05T17:43:41.558Z,10.40
2019-03-05T17:48:36.162Z,10.40
2019-03-05T17:53:30.749Z,10.40
2019-03-05T17:58:26.897Z,10.50
2019-03-05T18:03:21.620Z,10.40
2019-03-05T18:08:22.624Z,10.40
2019-03-05T18:13:17.598Z,10.40
2019-03-05T18:18:12.191Z,10.50
2019-03-05T18:23:06.924Z,10.50
2019-03-05T18:28:01.688Z,10.60
2019-03-05T18:32:56.458Z,10.60
2019-03-05T18:37:51.426Z,10.70
2019-03-05T18:42:46.224Z,10.70
2019-03-05T18:47:40.824Z,10.60
2019-03-05T18:52:35.409Z,10.70
2019-03-05T18:57:29.995Z,10.60
2019-03-05T19:02:24.828Z,10.50
2019-03-05T19:07:19.492Z,10.40
2019-03-05T19:12:14.100Z,10.30
2019-03-05T19:17:08.846Z,10.10
2019-03-05T19:22:03.421Z,10.00
2019-03-05T19:26:58.000Z,9.90
2019-03-05T19:31:52.716Z,9.90
2019-03-05T19:36:47.322Z,9.90
2019-03-05T19:41:41.965Z,10.00
2019-03-05T19:46:36.547Z,10.00
2019-03-05T19:51:31.141Z,10.00
2019-03-05T19:56:26.635Z,9.90
2019-03-05T20:01:22.867Z,10.00
2019-03-05T20:06:18.662Z,10.00
2019-03-05T20:11:13.308Z,10.10
2019-03-05T20:16:08.731Z,10.10
2019-03-05T20:21:03.385Z,10.10
2019-03-05T20:25:58.133Z,10.10
2019-03-05T20:30:52.704Z,10.10
2019-03-05T20:35:47.309Z,10.20
2019-03-05T20:40:41.958Z,10.10
2019-03-05T20:45:51.645Z,9.90
2019-03-05T20:50:46.221Z,9.80
2019-03-05T20:55:40.830Z,9.70
2019-03-05T21:00:40.108Z,9.60
2019-03-05T21:05:43.773Z,9.50
2019-03-05T21:10:38.563Z,9.40
2019-03-05T21:15:35.834Z,9.40
2019-03-05T21:20:30.410Z,9.40
2019-03-05T21:25:25.140Z,9.40
2019-03-05T21:30:28.193Z,9.30
2019-03-05T21:35:22.904Z,9.20
2019-03-05T21:40:33.031Z,9.30
2019-03-05T21:45:32.005Z,9.20
2019-03-05T21:50:26.870Z,9.10
2019-03-05T21:55:21.578Z,8.90
2019-03-05T22:00:29.443Z,8.90
2019-03-05T22:05:24.091Z,8.80
2019-03-05T22:10:23.571Z,8.80
2019-03-05T22:15:23.609Z,8.70
2019-03-05T22:20:20.476Z,8.50
2019-03-05T22:25:21.867Z,8.30
2019-03-05T22:30:26.598Z,8.20
2019-03-05T22:35:21.384Z,8.00
2019-03-05T22:40:18.874Z,7.90
2019-03-05T22:45:20.983Z,7.90
2019-03-05T22:50:17.364Z,7.90
2019-03-05T22:55:17.380Z,7.80
2019-03-05T23:00:41.715Z,7.70
2019-03-05T23:05:36.448Z,7.60
2019-03-05T23:10:31.496Z,7.50
2019-03-05T23:15:26.401Z,7.50
2019-03-05T23:20:21.410Z,7.40
2019-03-05T23:25:20.743Z,7.40
2019-03-05T23:30:21.922Z,7.30
2019-03-05T23:35:16.550Z,7.20
2019-03-05T23:40:14.154Z,7.10
2019-03-05T23:45:20.094Z,6.80
2019-03-05T23:50:17.240Z,6.60
2019-03-05T23:55:13.236Z,6.60
